createdAt,value
2019-03-04T00:00:46.360Z,37.20
2019-03-04T00:03:14.279Z,37.10
2019-03-04T00:05:42.075Z,36.90
2019-03-04T00:08:09.806Z,36.90
2019-03-04T00:10:37.417Z,36.70
2019-03-04T00:13:05.066Z,36.90
2019-03-04T00:15:32.721Z,37.30
2019-03-04T00:18:00.345Z,36.60
2019-03-04T00:20:28.063Z,37.00
2019-03-04T00:22:55.683Z,36.80
2019-03-04T00:25:23.312Z,36.80
2019-03-04T00:27:51.101Z,36.60
2019-03-04T00:30:18.739Z,36.70
2019-03-04T00:32:46.312Z,36.70
2019-03-04T00:35:13.981Z,36.30
2019-03-04T00:37:41.654Z,36.60
2019-03-04T00:40:18.472Z,36.30
2019-03-04T00:42:46.082Z,36.50
2019-03-04T00:45:13.857Z,36.30
2019-03-04T00:47:41.582Z,36.30
2019-03-04T00:50:13.071Z,36.50
2019-03-04T00:52:40.637Z,36.30
2019-03-04T00:55:08.791Z,36.20
2019-03-04T00:57:36.443Z,36.30
2019-03-04T01:00:13.227Z,36.40
2019-03-04T01:02:40.958Z,36.10
2019-03-04T01:05:08.560Z,36.80
2019-03-04T01:07:36.147Z,36.10
2019-03-04T01:10:05.068Z,36.30
2019-03-04T01:12:32.790Z,37.00
2019-03-04T01:15:00.403Z,36.40
2019-03-04T01:17:28.006Z,36.20
2019-03-04T01:19:55.742Z,35.80
2019-03-04T01:22:23.323Z,36.10
2019-03-04T01:24:50.919Z,36.50
2019-03-04T01:27:18.575Z,36.20
2019-03-04T01:29:46.165Z,36.20
2019-03-04T01:32:13.782Z,36.00
2019-03-04T01:34:41.421Z,36.10
2019-03-04T01:37:09.029Z,36.40
2019-03-04T01:39:36.682Z,36.30
2019-03-04T01:42:04.265Z,35.80
2019-03-04T01:44:31.893Z,36.10
2019-03-04T01:46:59.593Z,35.80
2019-03-04T01:49:27.181Z,35.90
2019-03-04T01:51:54.777Z,36.10
2019-03-04T01:54:22.423Z,36.10
2019-03-04T01:56:50.006Z,35.80
2019-03-04T01:59:17.600Z,35.90
2019-03-04T02:01:45.257Z,36.00
2019-03-04T02:04:12.861Z,36.10
2019-03-04T02:06:40.453Z,35.70
2019-03-04T02:09:08.097Z,35.80
2019-03-04T02:11:35.767Z,35.80
2019-03-04T02:14:03.398Z,35.60
2019-03-04T02:16:31.079Z,35.50
2019-03-04T02:18:58.733Z,35.70
2019-03-04T02:21:26.444Z,36.00
2019-03-04T02:23:54.023Z,35.90
2019-03-04T02:26:21.681Z,35.20
2019-03-04T02:28:49.283Z,35.40
2019-03-04T02:31:16.891Z,35.60
2019-03-04T02:33:44.626Z,35.60
2019-03-04T02:36:12.272Z,35.60
2019-03-04T02:38:39.864Z,35.40
2019-03-04T02:41:07.503Z,35.30
2019-03-04T02:43:35.088Z,35.30
2019-03-04T02:46:02.661Z,35.60
2019-03-04T02:48:30.306Z,35.80
2019-03-04T02:50:58.018Z,35.40
2019-03-04T02:53:25.630Z,35.70
2019-03-04T02:55:53.236Z,35.60
2019-03-04T02:58:20.970Z,35.30
2019-03-04T03:00:48.620Z,35.20
2019-03-04T03:03:16.251Z,35.40
2019-03-04T03:05:43.891Z,35.80
2019-03-04T03:08:11.511Z,35.10
2019-03-04T03:10:39.163Z,35.60
2019-03-04T03:13:06.837Z,35.40
2019-03-04T03:15:34.417Z,35.60
2019-03-04T03:18:02.021Z,35.20
2019-03-04T03:20:29.772Z,35.20
2019-03-04T03:22:57.393Z,35.30
2019-03-04T03:25:25.056Z,35.10
2019-03-04T03:27:52.672Z,34.20
2019-03-04T03:30:20.642Z,35.60
2019-03-04T03:32:48.293Z,34.60
2019-03-04T03:35:15.957Z,34.60
2019-03-04T03:37:43.679Z,34.90
2019-03-04T03:40:13.001Z,35.10
2019-03-04T03:42:40.673Z,35.10
2019-03-04T03:45:08.680Z,35.00
2019-03-04T03:47:36.366Z,34.70
2019-03-04T03:50:05.714Z,34.60
2019-03-04T03:52:33.385Z,34.70
2019-03-04T03:55:01.070Z,34.50
2019-03-04T03:57:28.793Z,34.10
2019-03-04T03:59:56.479Z,34.20
2019-03-04T04:02:24.233Z,34.40
2019-03-04T04:04:51.945Z,35.00
2019-03-04T04:07:19.575Z,34.10
2019-03-04T04:09:47.303Z,35.30
2019-03-04T04:12:15.018Z,35.10
2019-03-04T04:14:42.787Z,34.50
2019-03-04T04:17:10.442Z,35.10
2019-03-04T04:19:38.165Z,34.60
2019-03-04T04:22:05.894Z,35.20
2019-03-04T04:24:33.527Z,34.10
2019-03-04T04:27:01.221Z,34.30
2019-03-04T04:29:28.955Z,34.10
2019-03-04T04:31:56.656Z,34.10
2019-03-04T04:34:24.364Z,34.10
2019-03-04T04:36:52.242Z,34.10
2019-03-04T04:39:19.990Z,34.50
2019-03-04T04:41:47.610Z,34.30
2019-03-04T04:44:15.378Z,34.30
2019-03-04T04:46:47.636Z,34.20
2019-03-04T04:49:15.386Z,34.70
2019-03-04T04:51:43.012Z,34.20
2019-03-04T04:54:10.608Z,34.80
2019-03-04T04:56:38.335Z,34.20
2019-03-04T04:59:06.022Z,34.20
2019-03-04T05:01:33.715Z,34.80
2019-03-04T05:04:01.381Z,34.30
2019-03-04T05:06:29.115Z,34.10
2019-03-04T05:08:56.812Z,34.10
2019-03-04T05:11:24.426Z,34.10
2019-03-04T05:13:52.128Z,34.10
2019-03-04T05:16:19.810Z,34.30
2019-03-04T05:18:47.464Z,34.10
2019-03-04T05:21:15.186Z,34.10
2019-03-04T05:23:42.820Z,34.10
2019-03-04T05:26:10.640Z,34.10
2019-03-04T05:28:38.244Z,34.10
2019-03-04T05:31:05.880Z,34.10
2019-03-04T05:33:33.594Z,34.10
2019-03-04T05:36:01.394Z,34.10
2019-03-04T05:38:29.092Z,34.10
2019-03-04T05:40:57.292Z,34.20
2019-03-04T05:43:25.129Z,34.10
2019-03-04T05:45:52.788Z,35.00
2019-03-04T05:48:20.400Z,34.10
2019-03-04T05:50:48.095Z,34.20
2019-03-04T05:53:15.905Z,34.10
2019-03-04T05:55:43.514Z,34.10
2019-03-04T05:58:11.343Z,34.10
2019-03-04T06:00:46.432Z,33.70
2019-03-04T06:03:18.516Z,34.00
2019-03-04T06:08:40.618Z,33.40
2019-03-04T06:11:08.708Z,33.30
2019-03-04T06:13:36.368Z,34.10
2019-03-04T06:16:04.144Z,34.50
2019-03-04T06:18:31.781Z,34.20
2019-03-04T06:21:02.318Z,34.20
2019-03-04T06:23:30.109Z,34.20
2019-03-04T06:25:57.800Z,34.20
2019-03-04T06:28:27.159Z,34.30
2019-03-04T06:30:54.898Z,34.20
2019-03-04T06:33:22.645Z,34.20
2019-03-04T06:35:50.388Z,34.10
2019-03-04T06:38:18.052Z,34.20
2019-03-04T06:40:46.774Z,34.20
2019-03-04T06:43:14.513Z,34.50
2019-03-04T06:45:42.440Z,34.20
2019-03-04T06:48:10.311Z,34.20
2019-03-04T06:50:45.036Z,34.70
2019-03-04T06:53:13.666Z,34.20
2019-03-04T06:55:52.160Z,34.00
2019-03-04T06:58:19.776Z,34.20
2019-03-04T07:00:49.049Z,34.10
2019-03-04T07:03:17.178Z,33.30
2019-03-04T07:05:48.510Z,32.80
2019-03-04T07:08:34.255Z,33.00
2019-03-04T07:11:01.898Z,32.40
2019-03-04T07:13:29.557Z,32.50
2019-03-04T07:15:57.188Z,32.70
2019-03-04T07:18:24.787Z,32.70
2019-03-04T07:20:52.524Z,33.20
2019-03-04T07:23:20.102Z,33.00
2019-03-04T07:25:47.698Z,32.00
2019-03-04T07:28:15.394Z,32.90
2019-03-04T07:30:42.992Z,32.80
2019-03-04T07:33:10.582Z,33.10
2019-03-04T07:35:38.240Z,32.90
2019-03-04T07:38:19.699Z,32.50
2019-03-04T07:40:47.336Z,32.70
2019-03-04T07:43:14.931Z,32.40
2019-03-04T07:45:42.561Z,32.40
2019-03-04T07:48:10.204Z,33.20
2019-03-04T07:50:37.794Z,32.60
2019-03-04T07:53:05.400Z,32.70
2019-03-04T07:55:33.050Z,32.50
2019-03-04T07:58:00.648Z,32.90
2019-03-04T08:00:28.224Z,32.70
2019-03-04T08:02:55.919Z,32.90
2019-03-04T08:05:23.495Z,32.70
2019-03-04T08:07:52.961Z,32.60
2019-03-04T08:10:22.243Z,32.50
2019-03-04T08:12:54.253Z,32.70
2019-03-04T08:15:21.831Z,32.90
2019-03-04T08:17:49.461Z,32.30
2019-03-04T08:20:17.063Z,33.00
2019-03-04T08:22:44.721Z,33.00
2019-03-04T08:25:12.479Z,32.20
2019-03-04T08:27:40.092Z,32.10
2019-03-04T08:30:09.435Z,32.60
2019-03-04T08:32:37.061Z,32.40
2019-03-04T08:35:04.802Z,32.00
2019-03-04T08:37:32.410Z,32.30
2019-03-04T08:39:59.989Z,32.00
2019-03-04T08:42:27.633Z,31.80
2019-03-04T08:44:55.243Z,31.70
2019-03-04T08:47:22.812Z,32.00
2019-03-04T08:49:50.490Z,32.30
2019-03-04T08:52:18.069Z,31.80
2019-03-04T08:54:45.678Z,31.40
2019-03-04T08:57:13.317Z,31.80
2019-03-04T08:59:40.913Z,31.10
2019-03-04T09:02:08.533Z,31.80
2019-03-04T09:04:36.187Z,31.60
2019-03-04T09:07:04.121Z,31.30
2019-03-04T09:09:31.824Z,31.30
2019-03-04T09:11:59.471Z,31.80
2019-03-04T09:14:27.047Z,30.80
2019-03-04T09:16:54.661Z,31.50
2019-03-04T09:19:22.529Z,31.40
2019-03-04T09:21:50.199Z,31.50
2019-03-04T09:24:17.807Z,31.40
2019-03-04T09:26:45.529Z,31.10
2019-03-04T09:29:13.139Z,31.00
2019-03-04T09:31:40.733Z,30.90
2019-03-04T09:34:08.435Z,31.20
2019-03-04T09:36:36.040Z,31.20
2019-03-04T09:39:05.010Z,30.80
2019-03-04T09:41:32.751Z,31.00
2019-03-04T09:44:00.405Z,31.10
2019-03-04T09:46:28.007Z,31.30
2019-03-04T09:48:55.661Z,31.10
2019-03-04T09:51:24.613Z,30.70
2019-03-04T09:53:52.429Z,31.10
2019-03-04T09:56:20.081Z,31.10
2019-03-04T09:58:47.667Z,30.70
2019-03-04T10:01:17.126Z,31.00
2019-03-04T10:03:46.383Z,31.00
2019-03-04T10:06:15.668Z,31.10
2019-03-04T10:09:03.043Z,31.00
2019-03-04T10:11:50.355Z,30.80
2019-03-04T10:14:34.677Z,31.30
2019-03-04T10:17:03.891Z,30.90
2019-03-04T10:19:45.381Z,31.00
2019-03-04T10:22:14.596Z,31.10
2019-03-04T10:24:43.875Z,31.40
2019-03-04T10:27:19.128Z,31.40
2019-03-04T10:30:05.074Z,31.80
2019-03-04T10:32:40.199Z,31.90
2019-03-04T10:35:18.561Z,31.60
2019-03-04T10:37:53.808Z,31.30
2019-03-04T10:40:23.102Z,31.80
2019-03-04T10:43:04.133Z,31.80
2019-03-04T10:45:48.519Z,31.60
2019-03-04T10:48:16.152Z,31.70
2019-03-04T10:50:43.734Z,31.90
2019-03-04T10:53:11.382Z,31.80
2019-03-04T10:55:42.166Z,31.70
2019-03-04T10:58:08.406Z,31.60
2019-03-04T11:00:36.135Z,31.60
2019-03-04T11:03:03.798Z,31.50
2019-03-04T11:05:31.454Z,31.20
2019-03-04T11:07:59.065Z,31.40
2019-03-04T11:10:26.744Z,31.30
2019-03-04T11:12:54.382Z,31.20
2019-03-04T11:15:25.258Z,31.40
2019-03-04T11:17:54.543Z,31.40
2019-03-04T11:20:22.326Z,31.10
2019-03-04T11:22:49.933Z,31.10
2019-03-04T11:25:18.222Z,31.10
2019-03-04T11:27:45.858Z,30.70
2019-03-04T11:30:15.334Z,31.10
2019-03-04T11:32:42.988Z,31.10
2019-03-04T11:35:11.564Z,31.50
2019-03-04T11:37:39.280Z,31.00
2019-03-04T11:40:08.890Z,30.70
2019-03-04T11:42:36.498Z,30.30
2019-03-04T11:45:06.234Z,30.20
2019-03-04T11:47:33.866Z,30.30
2019-03-04T11:50:01.534Z,30.20
2019-03-04T11:52:29.171Z,30.50
2019-03-04T11:54:56.760Z,30.00
2019-03-04T11:57:24.370Z,30.40
2019-03-04T11:59:52.084Z,30.60
2019-03-04T12:02:20.134Z,30.10
2019-03-04T12:04:47.766Z,30.00
2019-03-04T12:07:15.370Z,30.00
2019-03-04T12:09:43.018Z,29.80
2019-03-04T12:12:11.046Z,29.90
2019-03-04T12:14:38.660Z,29.80
2019-03-04T12:17:06.299Z,30.30
2019-03-04T12:19:33.910Z,30.00
2019-03-04T12:22:01.519Z,30.00
2019-03-04T12:24:29.260Z,30.20
2019-03-04T12:26:56.840Z,29.50
2019-03-04T12:29:24.434Z,29.70
2019-03-04T12:31:53.706Z,29.40
2019-03-04T12:34:24.888Z,29.90
2019-03-04T12:36:52.772Z,29.40
2019-03-04T12:39:20.426Z,29.20
2019-03-04T12:41:49.683Z,29.70
2019-03-04T12:44:17.536Z,29.30
2019-03-04T12:46:45.144Z,29.70
2019-03-04T12:49:12.763Z,29.70
2019-03-04T12:51:40.398Z,29.90
2019-03-04T12:54:07.974Z,29.50
2019-03-04T12:56:35.590Z,29.20
2019-03-04T12:59:03.250Z,29.40
2019-03-04T13:01:30.905Z,29.60
2019-03-04T13:03:58.506Z,29.70
2019-03-04T13:06:26.167Z,29.60
2019-03-04T13:08:53.744Z,29.20
2019-03-04T13:11:21.364Z,29.50
2019-03-04T13:13:48.994Z,29.40
2019-03-04T13:16:16.589Z,29.50
2019-03-04T13:18:44.231Z,29.70
2019-03-04T13:21:11.832Z,29.70
2019-03-04T13:23:39.498Z,29.40
2019-03-04T13:26:07.094Z,29.40
2019-03-04T13:28:34.716Z,29.50
2019-03-04T13:31:02.444Z,29.60
2019-03-04T13:33:30.042Z,29.20
2019-03-04T13:35:57.673Z,30.00
2019-03-04T13:38:25.281Z,29.20
2019-03-04T13:40:52.956Z,29.90
2019-03-04T13:43:20.592Z,29.50
2019-03-04T13:45:48.226Z,29.50
2019-03-04T13:48:15.891Z,29.30
2019-03-04T13:50:43.623Z,29.80
2019-03-04T13:53:11.224Z,29.30
2019-03-04T13:55:38.836Z,29.30
2019-03-04T13:58:06.624Z,29.50
2019-03-04T14:00:40.900Z,28.90
2019-03-04T14:03:08.505Z,29.80
2019-03-04T14:05:36.152Z,29.40
2019-03-04T14:08:03.732Z,29.50
2019-03-04T14:10:32.760Z,28.70
2019-03-04T14:13:00.360Z,29.00
2019-03-04T14:15:29.663Z,29.30
2019-03-04T14:17:57.303Z,29.50
2019-03-04T14:20:24.911Z,29.00
2019-03-04T14:22:57.525Z,28.90
2019-03-04T14:25:22.841Z,28.60
2019-03-04T14:27:50.476Z,28.60
2019-03-04T14:30:18.667Z,29.20
2019-03-04T14:32:46.331Z,28.80
2019-03-04T14:35:14.069Z,29.00
2019-03-04T14:37:42.123Z,29.20
2019-03-04T14:40:13.930Z,28.50
2019-03-04T14:42:41.511Z,28.60
2019-03-04T14:45:21.763Z,28.60
2019-03-04T14:47:49.620Z,28.60
2019-03-04T14:50:17.570Z,28.50
2019-03-04T14:52:45.244Z,28.60
2019-03-04T14:55:14.063Z,28.60
2019-03-04T14:57:41.709Z,28.60
2019-03-04T15:00:11.041Z,28.60
2019-03-04T15:02:38.761Z,28.60
2019-03-04T15:05:07.041Z,28.60
2019-03-04T15:07:34.657Z,28.50
2019-03-04T15:10:02.484Z,28.80
2019-03-04T15:12:30.098Z,28.60
2019-03-04T15:14:57.709Z,28.50
2019-03-04T15:17:28.770Z,28.60
2019-03-04T15:19:56.441Z,29.00
2019-03-04T15:22:24.096Z,29.00
2019-03-04T15:24:51.697Z,28.90
2019-03-04T15:27:19.413Z,29.10
2019-03-04T15:29:47.020Z,28.60
2019-03-04T15:32:14.621Z,28.60
2019-03-04T15:34:42.267Z,28.60
2019-03-04T15:37:09.895Z,28.70
2019-03-04T15:39:37.595Z,28.70
2019-03-04T15:42:05.335Z,28.70
2019-03-04T15:44:32.921Z,28.70
2019-03-04T15:47:00.510Z,28.70
2019-03-04T15:49:28.165Z,28.70
2019-03-04T15:51:55.849Z,28.70
2019-03-04T15:54:23.461Z,28.70
2019-03-04T15:56:51.037Z,28.70
2019-03-04T15:59:18.661Z,28.70
2019-03-04T16:01:46.283Z,28.60
2019-03-04T16:04:13.907Z,28.70
2019-03-04T16:06:41.497Z,28.60
2019-03-04T16:09:14.189Z,28.70
2019-03-04T16:11:41.819Z,28.70
2019-03-04T16:14:09.479Z,28.70
2019-03-04T16:16:37.129Z,28.70
2019-03-04T16:19:04.722Z,28.60
2019-03-04T16:21:32.376Z,28.70
2019-03-04T16:24:00.014Z,28.60
2019-03-04T16:26:27.607Z,28.60
2019-03-04T16:28:55.291Z,28.70
2019-03-04T16:31:22.978Z,28.60
2019-03-04T16:33:50.693Z,28.60
2019-03-04T16:36:18.401Z,28.60
2019-03-04T16:38:46.095Z,28.60
2019-03-04T16:41:13.749Z,28.60
2019-03-04T16:43:41.345Z,28.60
2019-03-04T16:46:09.003Z,28.60
2019-03-04T16:48:36.690Z,28.60
2019-03-04T16:51:04.381Z,28.60
2019-03-04T16:53:33.159Z,28.60
2019-03-04T16:56:01.069Z,28.60
2019-03-04T16:58:28.664Z,28.70
2019-03-04T17:00:56.348Z,28.70
2019-03-04T17:03:24.014Z,28.80
2019-03-04T17:05:51.602Z,28.70
2019-03-04T17:08:19.247Z,28.70
2019-03-04T17:10:47.224Z,28.70
2019-03-04T17:13:14.869Z,28.70
2019-03-04T17:15:42.534Z,28.80
2019-03-04T17:18:10.192Z,28.80
2019-03-04T17:20:37.865Z,28.80
2019-03-04T17:23:05.541Z,28.80
2019-03-04T17:25:33.285Z,28.80
2019-03-04T17:28:00.884Z,28.90
2019-03-04T17:30:28.552Z,28.90
2019-03-04T17:32:57.913Z,28.80
2019-03-04T17:35:25.716Z,28.90
2019-03-04T17:37:53.327Z,28.90
2019-03-04T17:40:26.545Z,28.90
2019-03-04T17:42:54.376Z,28.90
2019-03-04T17:45:24.332Z,28.90
2019-03-04T17:47:52.264Z,28.90
2019-03-04T17:50:24.263Z,28.80
2019-03-04T17:52:52.206Z,28.90
2019-03-04T17:55:19.819Z,28.90
2019-03-04T17:57:47.414Z,28.90
2019-03-04T18:00:16.607Z,29.50
2019-03-04T18:02:44.278Z,29.90
2019-03-04T18:05:12.054Z,29.90
2019-03-04T18:07:39.769Z,30.50
2019-03-04T18:10:09.271Z,30.20
2019-03-04T18:12:37.069Z,31.50
2019-03-04T18:15:06.430Z,31.90
2019-03-04T18:17:34.173Z,32.60
2019-03-04T18:20:01.775Z,32.00
2019-03-04T18:22:29.491Z,32.00
2019-03-04T18:24:57.222Z,31.50
2019-03-04T18:27:24.813Z,31.20
2019-03-04T18:30:09.008Z,31.70
2019-03-04T18:32:47.230Z,31.00
2019-03-04T18:35:22.542Z,30.70
2019-03-04T18:37:57.523Z,30.70
2019-03-04T18:40:26.824Z,30.60
2019-03-04T18:42:56.125Z,30.20
2019-03-04T18:45:31.466Z,30.20
2019-03-04T18:48:09.357Z,29.60
2019-03-04T18:50:37.038Z,29.40
2019-03-04T18:53:04.656Z,29.40
2019-03-04T18:55:32.369Z,29.20
2019-03-04T18:58:00.123Z,29.20
2019-03-04T19:00:27.882Z,29.10
2019-03-04T19:02:55.551Z,29.20
2019-03-04T19:05:23.381Z,29.10
2019-03-04T19:07:51.094Z,29.00
2019-03-04T19:10:18.773Z,29.00
2019-03-04T19:12:46.419Z,29.00
2019-03-04T19:15:14.225Z,29.00
2019-03-04T19:17:41.975Z,29.30
2019-03-04T19:20:11.195Z,29.50
2019-03-04T19:22:38.792Z,29.60
2019-03-04T19:25:07.034Z,29.50
2019-03-04T19:27:34.632Z,30.50
2019-03-04T19:30:02.240Z,30.10
2019-03-04T19:32:29.942Z,30.00
2019-03-04T19:34:57.585Z,30.00
2019-03-04T19:37:25.197Z,30.00
2019-03-04T19:39:52.869Z,30.00
2019-03-04T19:42:20.442Z,30.00
2019-03-04T19:44:48.064Z,30.00
2019-03-04T19:47:15.687Z,30.10
2019-03-04T19:49:43.357Z,30.10
2019-03-04T19:52:11.023Z,30.10
2019-03-04T19:54:38.629Z,30.10
2019-03-04T19:57:06.281Z,30.20
2019-03-04T19:59:34.055Z,30.20
2019-03-04T20:02:02.258Z,30.20
2019-03-04T20:04:30.095Z,30.20
2019-03-04T20:06:57.688Z,30.30
2019-03-04T20:09:25.403Z,30.20
2019-03-04T20:11:53.066Z,30.30
2019-03-04T20:14:20.768Z,30.30
2019-03-04T20:16:48.446Z,30.30
2019-03-04T20:19:16.098Z,30.40
2019-03-04T20:21:43.717Z,30.40
2019-03-04T20:24:11.371Z,30.40
2019-03-04T20:26:39.133Z,30.60
2019-03-04T20:29:06.735Z,30.40
2019-03-04T20:31:34.384Z,30.70
2019-03-04T20:34:02.105Z,30.60
2019-03-04T20:36:29.719Z,30.60
2019-03-04T20:38:57.334Z,30.60
2019-03-04T20:41:25.121Z,30.60
2019-03-04T20:43:52.734Z,30.70
2019-03-04T20:46:20.415Z,30.60
2019-03-04T20:48:48.074Z,30.60
2019-03-04T20:51:15.728Z,30.70
2019-03-04T20:53:43.337Z,30.60
2019-03-04T20:56:10.987Z,30.50
2019-03-04T20:58:38.665Z,30.60
2019-03-04T21:01:06.352Z,30.50
2019-03-04T21:03:35.163Z,30.60
2019-03-04T21:06:02.837Z,30.60
2019-03-04T21:08:30.516Z,30.70
2019-03-04T21:10:58.138Z,30.70
2019-03-04T21:13:35.302Z,30.70
2019-03-04T21:15:55.332Z,30.60
2019-03-04T21:18:22.974Z,30.60
2019-03-04T21:20:50.627Z,30.60
2019-03-04T21:23:18.253Z,30.50
2019-03-04T21:25:47.531Z,30.40
2019-03-04T21:28:16.895Z,30.50
2019-03-04T21:30:47.736Z,30.50
2019-03-04T21:33:15.681Z,30.60
2019-03-04T21:35:53.606Z,31.20
2019-03-04T21:38:22.132Z,30.60
2019-03-04T21:40:51.427Z,30.60
2019-03-04T21:43:20.798Z,30.70
2019-03-04T21:45:50.160Z,30.70
2019-03-04T21:48:22.161Z,30.60
2019-03-04T21:50:54.192Z,30.60
2019-03-04T21:53:23.435Z,30.60
2019-03-04T21:55:55.848Z,30.70
2019-03-04T21:58:23.496Z,30.70
2019-03-04T22:00:52.936Z,30.80
2019-03-04T22:03:20.637Z,30.80
2019-03-04T22:05:50.516Z,30.80
2019-03-04T22:08:17.922Z,30.80
2019-03-04T22:10:45.548Z,30.80
2019-03-04T22:13:13.253Z,30.70
2019-03-04T22:15:41.098Z,30.70
2019-03-04T22:18:08.749Z,30.80
2019-03-04T22:20:36.411Z,30.70
2019-03-04T22:23:04.115Z,30.70
2019-03-04T22:25:31.799Z,30.80
2019-03-04T22:27:59.479Z,30.80
2019-03-04T22:30:27.110Z,30.80
2019-03-04T22:32:54.811Z,30.90
2019-03-04T22:35:22.506Z,30.80
2019-03-04T22:37:50.152Z,31.00
2019-03-04T22:40:19.370Z,30.80
2019-03-04T22:42:47.339Z,30.80
2019-03-04T22:45:15.771Z,30.90
2019-03-04T22:47:43.741Z,30.90
2019-03-04T22:50:12.316Z,30.80
2019-03-04T22:52:39.917Z,30.90
2019-03-04T22:55:09.197Z,30.90
2019-03-04T22:57:36.778Z,30.90
2019-03-04T23:00:22.831Z,30.90
2019-03-04T23:02:54.874Z,31.00
2019-03-04T23:05:19.814Z,30.90
2019-03-04T23:07:47.609Z,31.00
2019-03-04T23:10:15.235Z,31.00
2019-03-04T23:12:44.527Z,31.10
2019-03-04T23:15:13.803Z,31.10
2019-03-04T23:17:41.396Z,31.10
2019-03-04T23:20:09.084Z,31.00
2019-03-04T23:22:36.796Z,31.10
2019-03-04T23:25:06.029Z,31.10
2019-03-04T23:27:33.693Z,31.10
2019-03-04T23:30:01.377Z,31.10
2019-03-04T23:32:28.944Z,31.20
2019-03-04T23:34:56.627Z,31.50
2019-03-04T23:37:24.288Z,31.70
2019-03-04T23:39:51.941Z,31.90
2019-03-04T23:42:19.587Z,32.10
2019-03-04T23:44:47.223Z,31.90
2019-03-04T23:47:14.835Z,31.90
2019-03-04T23:49:42.489Z,32.10
2019-03-04T23:52:10.113Z,32.10
2019-03-04T23:54:37.753Z,32.10
2019-03-04T23:57:05.627Z,32.30
2019-03-04T23:59:33.285Z,32.20
